sensor_id;sensor_type;location;lat;lon;timestamp;pressure;altitude;pressure_sealevel;temperature;humidity
25420;BME280;13354;48.174;11.566;2022-07-06T00:01:09;96165.69;;;20.77;48.78
25420;BME280;13354;48.174;11.566;2022-07-06T00:03:34;96158.66;;;20.76;48.49
25420;BME280;13354;48.174;11.566;2022-07-06T00:05:59;96164.59;;;20.61;49.09
25420;BME280;13354;48.174;11.566;2022-07-06T00:08:24;96167.88;;;20.63;49.32
25420;BME280;13354;48.174;11.566;2022-07-06T00:10:50;96166.31;;;20.67;49.31
25420;BME280;13354;48.174;11.566;2022-07-06T00:13:15;96169.16;;;20.61;49.59
25420;BME280;13354;48.174;11.566;2022-07-06T00:15:40;96159.00;;;20.63;49.41
25420;BME280;13354;48.174;11.566;2022-07-06T00:18:05;96153.28;;;20.59;49.84
25420;BME280;13354;48.174;11.566;2022-07-06T00:20:30;96152.78;;;20.62;49.62
25420;BME280;13354;48.174;11.566;2022-07-06T00:22:56;96149.09;;;20.68;50.00
25420;BME280;13354;48.174;11.566;2022-07-06T00:25:21;96149.72;;;20.42;50.56
25420;BME280;13354;48.174;11.566;2022-07-06T00:27:46;96153.06;;;20.49;50.86
25420;BME280;13354;48.174;11.566;2022-07-06T00:30:11;96151.91;;;20.45;51.10
25420;BME280;13354;48.174;11.566;2022-07-06T00:32:37;96151.25;;;20.38;51.76
25420;BME280;13354;48.174;11.566;2022-07-06T00:35:02;96150.63;;;20.47;51.46
25420;BME280;13354;48.174;11.566;2022-07-06T00:37:27;96148.56;;;20.38;51.76
25420;BME280;13354;48.174;11.566;2022-07-06T00:39:53;96151.91;;;20.45;51.91
25420;BME280;13354;48.174;11.566;2022-07-06T00:42:18;96155.72;;;20.32;52.18
25420;BME280;13354;48.174;11.566;2022-07-06T00:44:43;96153.63;;;20.34;52.45
25420;BME280;13354;48.174;11.566;2022-07-06T00:47:09;96151.06;;;20.27;52.96
25420;BME280;13354;48.174;11.566;2022-07-06T00:49:34;96153.22;;;20.42;52.56
25420;BME280;13354;48.174;11.566;2022-07-06T00:52:18;96152.47;;;20.30;53.03
25420;BME280;13354;48.174;11.566;2022-07-06T00:54:43;96148.72;;;20.31;52.98
25420;BME280;13354;48.174;11.566;2022-07-06T00:57:09;96144.81;;;20.22;53.47
25420;BME280;13354;48.174;11.566;2022-07-06T00:59:34;96143.06;;;20.16;53.88
25420;BME280;13354;48.174;11.566;2022-07-06T01:02:00;96150.38;;;20.03;54.69
25420;BME280;13354;48.174;11.566;2022-07-06T01:04:25;96150.38;;;20.03;55.04
25420;BME280;13354;48.174;11.566;2022-07-06T01:06:50;96151.38;;;20.14;54.66
25420;BME280;13354;48.174;11.566;2022-07-06T01:09:16;96141.13;;;20.28;53.58
25420;BME280;13354;48.174;11.566;2022-07-06T01:11:41;96136.53;;;20.12;54.16
25420;BME280;13354;48.174;11.566;2022-07-06T01:14:07;96137.09;;;20.14;54.40
25420;BME280;13354;48.174;11.566;2022-07-06T01:16:32;96133.78;;;20.23;54.11
25420;BME280;13354;48.174;11.566;2022-07-06T01:18:58;96133.38;;;20.32;53.64
25420;BME280;13354;48.174;11.566;2022-07-06T01:21:23;96123.63;;;20.25;54.05
25420;BME280;13354;48.174;11.566;2022-07-06T01:23:48;96123.28;;;20.22;54.32
25420;BME280;13354;48.174;11.566;2022-07-06T01:26:17;96122.97;;;20.18;54.65
25420;BME280;13354;48.174;11.566;2022-07-06T01:28:44;96121.91;;;20.19;54.63
25420;BME280;13354;48.174;11.566;2022-07-06T01:31:30;96123.03;;;20.23;54.52
25420;BME280;13354;48.174;11.566;2022-07-06T01:33:56;96119.00;;;20.09;55.40
25420;BME280;13354;48.174;11.566;2022-07-06T01:36:21;96115.78;;;20.24;54.33
25420;BME280;13354;48.174;11.566;2022-07-06T01:38:56;96121.03;;;20.02;55.27
25420;BME280;13354;48.174;11.566;2022-07-06T01:41:24;96115.78;;;20.07;54.97
25420;BME280;13354;48.174;11.566;2022-07-06T01:43:50;96120.63;;;19.93;55.46
25420;BME280;13354;48.174;11.566;2022-07-06T01:46:15;96112.81;;;20.09;54.91
25420;BME280;13354;48.174;11.566;2022-07-06T01:48:40;96127.81;;;20.05;55.10
25420;BME280;13354;48.174;11.566;2022-07-06T01:51:06;96125.56;;;19.85;55.88
25420;BME280;13354;48.174;11.566;2022-07-06T01:53:31;96131.28;;;19.76;56.06
25420;BME280;13354;48.174;11.566;2022-07-06T01:55:57;96134.31;;;19.80;55.97
25420;BME280;13354;48.174;11.566;2022-07-06T01:58:22;96129.00;;;19.68;56.29
25420;BME280;13354;48.174;11.566;2022-07-06T02:00:47;96125.75;;;19.66;56.52
25420;BME280;13354;48.174;11.566;2022-07-06T02:03:12;96123.16;;;19.60;56.92
25420;BME280;13354;48.174;11.566;2022-07-06T02:05:37;96124.56;;;19.50;57.12
25420;BME280;13354;48.174;11.566;2022-07-06T02:08:03;96123.28;;;19.53;56.49
25420;BME280;13354;48.174;11.566;2022-07-06T02:10:28;96123.75;;;19.50;56.42
25420;BME280;13354;48.174;11.566;2022-07-06T02:12:53;96125.41;;;19.39;56.77
25420;BME280;13354;48.174;11.566;2022-07-06T02:15:18;96126.47;;;19.38;56.80
25420;BME280;13354;48.174;11.566;2022-07-06T02:17:44;96126.69;;;19.37;56.78
25420;BME280;13354;48.174;11.566;2022-07-06T02:20:09;96128.00;;;19.34;56.93
25420;BME280;13354;48.174;11.566;2022-07-06T02:22:34;96132.41;;;19.28;57.04
25420;BME280;13354;48.174;11.566;2022-07-06T02:25:00;96132.75;;;19.32;57.00
25420;BME280;13354;48.174;11.566;2022-07-06T02:27:25;96145.50;;;19.25;57.23
25420;BME280;13354;48.174;11.566;2022-07-06T02:29:50;96143.81;;;19.47;56.38
25420;BME280;13354;48.174;11.566;2022-07-06T02:32:15;96149.22;;;19.36;56.69
25420;BME280;13354;48.174;11.566;2022-07-06T02:34:41;96146.06;;;19.39;56.82
25420;BME280;13354;48.174;11.566;2022-07-06T02:37:06;96150.06;;;19.24;56.70
25420;BME280;13354;48.174;11.566;2022-07-06T02:39:31;96153.56;;;19.13;58.00
25420;BME280;13354;48.174;11.566;2022-07-06T02:41:56;96145.63;;;19.06;57.70
25420;BME280;13354;48.174;11.566;2022-07-06T02:44:21;96152.19;;;19.22;57.26
25420;BME280;13354;48.174;11.566;2022-07-06T02:46:46;96148.44;;;19.23;57.12
25420;BME280;13354;48.174;11.566;2022-07-06T02:49:12;96150.31;;;19.11;57.35
25420;BME280;13354;48.174;11.566;2022-07-06T02:51:37;96149.13;;;18.95;58.07
25420;BME280;13354;48.174;11.566;2022-07-06T02:54:02;96146.69;;;19.05;57.95
25420;BME280;13354;48.174;11.566;2022-07-06T02:56:27;96141.66;;;19.09;57.59
25420;BME280;13354;48.174;11.566;2022-07-06T02:58:53;96139.22;;;19.08;57.97
25420;BME280;13354;48.174;11.566;2022-07-06T03:01:18;96143.19;;;19.17;57.83
25420;BME280;13354;48.174;11.566;2022-07-06T03:03:43;96152.28;;;19.16;57.83
25420;BME280;13354;48.174;11.566;2022-07-06T03:06:08;96152.84;;;19.18;57.71
25420;BME280;13354;48.174;11.566;2022-07-06T03:08:34;96150.16;;;19.41;56.70
25420;BME280;13354;48.174;11.566;2022-07-06T03:10:59;96160.78;;;19.24;57.52
25420;BME280;13354;48.174;11.566;2022-07-06T03:13:24;96163.47;;;19.24;57.22
25420;BME280;13354;48.174;11.566;2022-07-06T03:15:50;96173.75;;;19.27;57.23
25420;BME280;13354;48.174;11.566;2022-07-06T03:18:15;96171.44;;;19.08;58.40
25420;BME280;13354;48.174;11.566;2022-07-06T03:20:40;96162.19;;;19.27;57.64
25420;BME280;13354;48.174;11.566;2022-07-06T03:23:05;96164.28;;;19.13;58.50
25420;BME280;13354;48.174;11.566;2022-07-06T03:25:31;96168.59;;;19.02;59.22
25420;BME280;13354;48.174;11.566;2022-07-06T03:27:57;96167.19;;;19.00;59.06
25420;BME280;13354;48.174;11.566;2022-07-06T03:30:22;96164.75;;;18.87;60.07
25420;BME280;13354;48.174;11.566;2022-07-06T03:32:48;96166.28;;;18.82;60.21
25420;BME280;13354;48.174;11.566;2022-07-06T03:35:13;96164.66;;;18.81;60.68
25420;BME280;13354;48.174;11.566;2022-07-06T03:37:38;96160.56;;;18.91;60.17
25420;BME280;13354;48.174;11.566;2022-07-06T03:40:03;96161.72;;;18.83;60.91
25420;BME280;13354;48.174;11.566;2022-07-06T03:42:29;96164.75;;;18.75;61.57
25420;BME280;13354;48.174;11.566;2022-07-06T03:44:54;96157.63;;;18.92;60.47
25420;BME280;13354;48.174;11.566;2022-07-06T03:47:19;96153.78;;;18.88;60.64
25420;BME280;13354;48.174;11.566;2022-07-06T03:49:44;96161.84;;;18.88;60.72
25420;BME280;13354;48.174;11.566;2022-07-06T03:52:09;96161.97;;;18.93;60.24
25420;BME280;13354;48.174;11.566;2022-07-06T03:54:35;96160.81;;;18.89;60.63
25420;BME280;13354;48.174;11.566;2022-07-06T03:57:00;96154.47;;;18.72;61.44
25420;BME280;13354;48.174;11.566;2022-07-06T03:59:25;96156.72;;;18.75;61.45
25420;BME280;13354;48.174;11.566;2022-07-06T04:01:50;96159.22;;;18.70;61.61
25420;BME280;13354;48.174;11.566;2022-07-06T04:04:17;96165.88;;;18.67;62.06
25420;BME280;13354;48.174;11.566;2022-07-06T04:06:42;96160.03;;;18.70;62.38
25420;BME280;13354;48.174;11.566;2022-07-06T04:09:08;96166.69;;;18.68;62.25
25420;BME280;13354;48.174;11.566;2022-07-06T04:11:34;96165.28;;;18.65;62.00
25420;BME280;13354;48.174;11.566;2022-07-06T04:13:59;96170.88;;;18.64;62.06
25420;BME280;13354;48.174;11.566;2022-07-06T04:16:24;96168.78;;;18.66;62.46
25420;BME280;13354;48.174;11.566;2022-07-06T04:18:50;96168.25;;;18.75;62.06
25420;BME280;13354;48.174;11.566;2022-07-06T04:21:15;96179.53;;;18.77;61.82
25420;BME280;13354;48.174;11.566;2022-07-06T04:23:40;96175.31;;;18.70;62.24
25420;BME280;13354;48.174;11.566;2022-07-06T04:26:05;96179.00;;;18.87;61.76
25420;BME280;13354;48.174;11.566;2022-07-06T04:28:30;96175.59;;;18.80;62.46
25420;BME280;13354;48.174;11.566;2022-07-06T04:30:56;96181.56;;;18.94;61.72
25420;BME280;13354;48.174;11.566;2022-07-06T04:33:21;96179.00;;;18.99;62.06
25420;BME280;13354;48.174;11.566;2022-07-06T04:35:46;96181.69;;;19.11;61.50
25420;BME280;13354;48.174;11.566;2022-07-06T04:38:11;96187.28;;;19.09;62.00
25420;BME280;13354;48.174;11.566;2022-07-06T04:40:37;96177.00;;;19.18;61.44
25420;BME280;13354;48.174;11.566;2022-07-06T04:43:02;96180.88;;;19.10;61.92
25420;BME280;13354;48.174;11.566;2022-07-06T04:45:27;96186.22;;;19.22;61.86
25420;BME280;13354;48.174;11.566;2022-07-06T04:47:52;96175.16;;;19.30;61.49
25420;BME280;13354;48.174;11.566;2022-07-06T04:50:18;96180.50;;;19.06;62.42
25420;BME280;13354;48.174;11.566;2022-07-06T04:52:43;96183.19;;;18.95;63.03
25420;BME280;13354;48.174;11.566;2022-07-06T04:55:08;96179.47;;;19.08;62.66
25420;BME280;13354;48.174;11.566;2022-07-06T04:57:35;96188.09;;;18.98;63.01
25420;BME280;13354;48.174;11.566;2022-07-06T05:00:00;96179.00;;;18.99;63.24
25420;BME280;13354;48.174;11.566;2022-07-06T05:02:26;96183.91;;;19.02;62.98
25420;BME280;13354;48.174;11.566;2022-07-06T05:04:51;96184.00;;;19.07;63.02
25420;BME280;13354;48.174;11.566;2022-07-06T05:07:16;96191.84;;;18.97;63.03
25420;BME280;13354;48.174;11.566;2022-07-06T05:09:41;96187.16;;;18.92;63.00
25420;BME280;13354;48.174;11.566;2022-07-06T05:12:07;96190.44;;;18.94;63.50
25420;BME280;13354;48.174;11.566;2022-07-06T05:14:32;96189.16;;;18.97;63.24
25420;BME280;13354;48.174;11.566;2022-07-06T05:16:58;96192.16;;;18.89;63.93
25420;BME280;13354;48.174;11.566;2022-07-06T05:19:23;96192.41;;;18.99;63.45
25420;BME280;13354;48.174;11.566;2022-07-06T05:21:48;96191.13;;;19.13;62.89
25420;BME280;13354;48.174;11.566;2022-07-06T05:24:14;96193.47;;;19.10;63.03
25420;BME280;13354;48.174;11.566;2022-07-06T05:26:48;96197.44;;;19.19;62.86
25420;BME280;13354;48.174;11.566;2022-07-06T05:29:13;96193.81;;;19.13;63.17
25420;BME280;13354;48.174;11.566;2022-07-06T05:31:38;96193.81;;;19.25;62.82
25420;BME280;13354;48.174;11.566;2022-07-06T05:34:03;96197.91;;;19.27;62.34
25420;BME280;13354;48.174;11.566;2022-07-06T05:36:29;96197.19;;;19.32;61.39
25420;BME280;13354;48.174;11.566;2022-07-06T05:38:54;96192.88;;;19.31;61.50
25420;BME280;13354;48.174;11.566;2022-07-06T05:41:19;96198.03;;;19.44;61.45
25420;BME280;13354;48.174;11.566;2022-07-06T05:43:44;96196.97;;;19.45;59.90
25420;BME280;13354;48.174;11.566;2022-07-06T05:46:10;96199.28;;;19.65;59.49
25420;BME280;13354;48.174;11.566;2022-07-06T05:48:35;96200.69;;;19.68;59.45
25420;BME280;13354;48.174;11.566;2022-07-06T05:51:18;96206.78;;;19.51;59.59
25420;BME280;13354;48.174;11.566;2022-07-06T05:53:44;96204.66;;;19.53;59.90
25420;BME280;13354;48.174;11.566;2022-07-06T05:56:09;96215.88;;;19.39;60.26
25420;BME280;13354;48.174;11.566;2022-07-06T05:58:34;96210.50;;;19.62;59.14
25420;BME280;13354;48.174;11.566;2022-07-06T06:00:59;96211.66;;;19.54;59.59
25420;BME280;13354;48.174;11.566;2022-07-06T06:03:24;96210.38;;;19.69;59.22
25420;BME280;13354;48.174;11.566;2022-07-06T06:05:50;96213.78;;;19.64;59.35
25420;BME280;13354;48.174;11.566;2022-07-06T06:08:15;96215.72;;;19.81;58.62
25420;BME280;13354;48.174;11.566;2022-07-06T06:10:40;96212.69;;;19.77;57.99
25420;BME280;13354;48.174;11.566;2022-07-06T06:13:05;96213.28;;;19.79;57.89
25420;BME280;13354;48.174;11.566;2022-07-06T06:15:31;96222.28;;;19.85;57.41
25420;BME280;13354;48.174;11.566;2022-07-06T06:17:56;96216.97;;;20.01;56.55
25420;BME280;13354;48.174;11.566;2022-07-06T06:20:21;96219.75;;;20.18;56.50
25420;BME280;13354;48.174;11.566;2022-07-06T06:22:47;96216.94;;;20.13;56.73
25420;BME280;13354;48.174;11.566;2022-07-06T06:25:13;96223.03;;;20.09;56.93
25420;BME280;13354;48.174;11.566;2022-07-06T06:27:39;96224.78;;;20.15;56.64
25420;BME280;13354;48.174;11.566;2022-07-06T06:30:04;96217.69;;;20.37;55.18
25420;BME280;13354;48.174;11.566;2022-07-06T06:32:30;96214.06;;;20.32;55.96
25420;BME280;13354;48.174;11.566;2022-07-06T06:34:55;96226.47;;;20.33;55.56
25420;BME280;13354;48.174;11.566;2022-07-06T06:37:20;96220.84;;;20.34;55.00
25420;BME280;13354;48.174;11.566;2022-07-06T06:39:45;96219.03;;;20.52;54.49
25420;BME280;13354;48.174;11.566;2022-07-06T06:42:10;96221.50;;;20.41;54.76
25420;BME280;13354;48.174;11.566;2022-07-06T06:44:35;96226.81;;;20.36;55.02
25420;BME280;13354;48.174;11.566;2022-07-06T06:47:01;96225.09;;;20.47;55.11
25420;BME280;13354;48.174;11.566;2022-07-06T06:49:26;96231.13;;;20.37;55.67
25420;BME280;13354;48.174;11.566;2022-07-06T06:51:51;96222.78;;;20.50;55.26
25420;BME280;13354;48.174;11.566;2022-07-06T06:54:16;96226.63;;;20.55;55.21
25420;BME280;13354;48.174;11.566;2022-07-06T06:56:42;96227.25;;;20.73;53.74
25420;BME280;13354;48.174;11.566;2022-07-06T06:59:07;96221.13;;;20.78;53.97
25420;BME280;13354;48.174;11.566;2022-07-06T07:01:32;96223.75;;;20.90;53.64
25420;BME280;13354;48.174;11.566;2022-07-06T07:03:58;96228.16;;;20.96;53.88
25420;BME280;13354;48.174;11.566;2022-07-06T07:06:23;96223.25;;;21.10;52.80
25420;BME280;13354;48.174;11.566;2022-07-06T07:08:48;96227.06;;;21.31;53.00
25420;BME280;13354;48.174;11.566;2022-07-06T07:11:14;96228.97;;;21.30;53.10
25420;BME280;13354;48.174;11.566;2022-07-06T07:13:39;96232.72;;;21.29;52.16
25420;BME280;13354;48.174;11.566;2022-07-06T07:16:04;96228.34;;;21.40;52.79
25420;BME280;13354;48.174;11.566;2022-07-06T07:18:30;96230.22;;;21.78;51.92
25420;BME280;13354;48.174;11.566;2022-07-06T07:20:55;96224.47;;;22.13;50.49
25420;BME280;13354;48.174;11.566;2022-07-06T07:23:20;96224.91;;;22.27;49.66
25420;BME280;13354;48.174;11.566;2022-07-06T07:25:46;96223.56;;;22.52;48.56
25420;BME280;13354;48.174;11.566;2022-07-06T07:28:11;96218.41;;;23.04;47.57
25420;BME280;13354;48.174;11.566;2022-07-06T07:30:36;96220.59;;;23.45;46.42
25420;BME280;13354;48.174;11.566;2022-07-06T07:33:01;96218.72;;;23.93;45.13
25420;BME280;13354;48.174;11.566;2022-07-06T07:35:27;96221.06;;;23.74;44.98
25420;BME280;13354;48.174;11.566;2022-07-06T07:37:52;96222.50;;;23.86;44.52
25420;BME280;13354;48.174;11.566;2022-07-06T07:40:18;96218.25;;;24.11;44.77
25420;BME280;13354;48.174;11.566;2022-07-06T07:42:43;96212.53;;;24.80;43.19
25420;BME280;13354;48.174;11.566;2022-07-06T07:45:10;96214.19;;;25.27;42.64
25420;BME280;13354;48.174;11.566;2022-07-06T07:47:35;96212.47;;;25.93;40.01
25420;BME280;13354;48.174;11.566;2022-07-06T07:50:00;96215.28;;;26.37;40.03
25420;BME280;13354;48.174;11.566;2022-07-06T07:52:25;96218.13;;;26.66;38.84
25420;BME280;13354;48.174;11.566;2022-07-06T07:54:51;96221.31;;;27.18;37.77
25420;BME280;13354;48.174;11.566;2022-07-06T07:57:16;96219.09;;;27.20;37.45
25420;BME280;13354;48.174;11.566;2022-07-06T07:59:41;96212.66;;;27.06;36.99
25420;BME280;13354;48.174;11.566;2022-07-06T08:02:07;96219.25;;;27.63;36.90
25420;BME280;13354;48.174;11.566;2022-07-06T08:04:32;96226.16;;;27.84;37.10
25420;BME280;13354;48.174;11.566;2022-07-06T08:06:57;96222.47;;;27.70;37.15
25420;BME280;13354;48.174;11.566;2022-07-06T08:09:23;96216.44;;;28.02;36.15
25420;BME280;13354;48.174;11.566;2022-07-06T08:11:48;96217.34;;;27.92;36.46
25420;BME280;13354;48.174;11.566;2022-07-06T08:14:13;96209.91;;;27.45;37.21
25420;BME280;13354;48.174;11.566;2022-07-06T08:16:39;96218.47;;;27.91;36.25
25420;BME280;13354;48.174;11.566;2022-07-06T08:19:04;96220.25;;;27.72;37.07
25420;BME280;13354;48.174;11.566;2022-07-06T08:21:30;96219.88;;;28.08;36.69
25420;BME280;13354;48.174;11.566;2022-07-06T08:23:55;96219.81;;;28.13;36.55
25420;BME280;13354;48.174;11.566;2022-07-06T08:26:21;96225.09;;;28.04;36.86
25420;BME280;13354;48.174;11.566;2022-07-06T08:28:46;96217.28;;;27.98;36.75
25420;BME280;13354;48.174;11.566;2022-07-06T08:31:12;96223.25;;;28.00;37.74
25420;BME280;13354;48.174;11.566;2022-07-06T08:33:37;96225.72;;;28.20;36.83
25420;BME280;13354;48.174;11.566;2022-07-06T08:36:02;96222.53;;;28.13;37.87
25420;BME280;13354;48.174;11.566;2022-07-06T08:38:28;96226.38;;;28.12;37.58
25420;BME280;13354;48.174;11.566;2022-07-06T08:40:53;96219.97;;;27.74;37.84
25420;BME280;13354;48.174;11.566;2022-07-06T08:43:19;96217.81;;;28.00;38.17
25420;BME280;13354;48.174;11.566;2022-07-06T08:45:45;96229.81;;;27.99;37.84
25420;BME280;13354;48.174;11.566;2022-07-06T08:48:11;96221.47;;;28.14;37.76
25420;BME280;13354;48.174;11.566;2022-07-06T08:50:37;96215.66;;;28.21;37.46
25420;BME280;13354;48.174;11.566;2022-07-06T08:53:02;96224.44;;;28.12;38.08
25420;BME280;13354;48.174;11.566;2022-07-06T08:55:28;96228.31;;;28.30;37.13
25420;BME280;13354;48.174;11.566;2022-07-06T08:57:54;96225.44;;;28.22;35.66
25420;BME280;13354;48.174;11.566;2022-07-06T09:00:19;96230.31;;;27.72;36.37
25420;BME280;13354;48.174;11.566;2022-07-06T09:02:44;96230.53;;;28.04;36.13
25420;BME280;13354;48.174;11.566;2022-07-06T09:05:11;96234.22;;;27.65;37.13
25420;BME280;13354;48.174;11.566;2022-07-06T09:07:39;96235.13;;;27.85;37.89
25420;BME280;13354;48.174;11.566;2022-07-06T09:10:05;96236.28;;;27.74;36.88
25420;BME280;13354;48.174;11.566;2022-07-06T09:12:32;96236.09;;;27.65;37.05
25420;BME280;13354;48.174;11.566;2022-07-06T09:14:57;96239.53;;;27.46;37.61
25420;BME280;13354;48.174;11.566;2022-07-06T09:17:28;96239.19;;;27.53;37.25
25420;BME280;13354;48.174;11.566;2022-07-06T09:19:54;96235.16;;;27.16;37.47
25420;BME280;13354;48.174;11.566;2022-07-06T09:22:26;96245.75;;;27.52;38.25
25420;BME280;13354;48.174;11.566;2022-07-06T09:24:51;96233.09;;;27.37;37.09
25420;BME280;13354;48.174;11.566;2022-07-06T09:27:16;96239.72;;;27.26;37.16
25420;BME280;13354;48.174;11.566;2022-07-06T09:29:42;96239.03;;;27.39;37.77
25420;BME280;13354;48.174;11.566;2022-07-06T09:32:07;96239.78;;;27.50;37.33
25420;BME280;13354;48.174;11.566;2022-07-06T09:37:07;96238.47;;;27.77;36.85
25420;BME280;13354;48.174;11.566;2022-07-06T09:39:32;96242.72;;;27.88;37.24
25420;BME280;13354;48.174;11.566;2022-07-06T09:41:59;96252.72;;;28.16;35.63
25420;BME280;13354;48.174;11.566;2022-07-06T09:44:31;96247.44;;;28.01;35.33
25420;BME280;13354;48.174;11.566;2022-07-06T09:46:57;96255.31;;;28.27;35.48
25420;BME280;13354;48.174;11.566;2022-07-06T09:49:24;96246.19;;;27.93;36.29
25420;BME280;13354;48.174;11.566;2022-07-06T09:51:53;96251.44;;;27.85;36.10
25420;BME280;13354;48.174;11.566;2022-07-06T09:54:19;96253.31;;;28.13;34.12
25420;BME280;13354;48.174;11.566;2022-07-06T09:56:45;96247.38;;;27.82;34.81
25420;BME280;13354;48.174;11.566;2022-07-06T09:59:15;96241.91;;;28.11;34.97
25420;BME280;13354;48.174;11.566;2022-07-06T10:01:41;96239.13;;;27.92;36.29
25420;BME280;13354;48.174;11.566;2022-07-06T10:04:07;96248.31;;;27.97;34.75
25420;BME280;13354;48.174;11.566;2022-07-06T10:06:33;96237.31;;;27.83;35.28
25420;BME280;13354;48.174;11.566;2022-07-06T10:08:59;96241.81;;;27.34;35.19
25420;BME280;13354;48.174;11.566;2022-07-06T10:11:24;96249.84;;;27.50;35.69
25420;BME280;13354;48.174;11.566;2022-07-06T10:13:50;96246.13;;;27.40;36.12
25420;BME280;13354;48.174;11.566;2022-07-06T10:16:19;96234.66;;;27.78;36.15
25420;BME280;13354;48.174;11.566;2022-07-06T10:18:45;96237.19;;;27.64;36.89
25420;BME280;13354;48.174;11.566;2022-07-06T10:21:11;96232.09;;;27.57;37.37
25420;BME280;13354;48.174;11.566;2022-07-06T10:23:36;96229.91;;;27.88;36.35
25420;BME280;13354;48.174;11.566;2022-07-06T10:26:01;96228.16;;;28.22;35.41
25420;BME280;13354;48.174;11.566;2022-07-06T10:28:26;96230.69;;;28.37;35.36
25420;BME280;13354;48.174;11.566;2022-07-06T10:30:52;96229.22;;;28.69;35.51
25420;BME280;13354;48.174;11.566;2022-07-06T10:33:17;96236.47;;;29.30;33.60
25420;BME280;13354;48.174;11.566;2022-07-06T10:35:43;96233.47;;;28.94;32.61
25420;BME280;13354;48.174;11.566;2022-07-06T10:38:10;96236.34;;;28.64;32.52
25420;BME280;13354;48.174;11.566;2022-07-06T10:40:36;96230.88;;;28.46;32.32
25420;BME280;13354;48.174;11.566;2022-07-06T10:43:20;96235.47;;;28.50;32.77
25420;BME280;13354;48.174;11.566;2022-07-06T10:50:38;96228.16;;;28.64;33.80
25420;BME280;13354;48.174;11.566;2022-07-06T10:53:10;96215.16;;;28.80;33.11
25420;BME280;13354;48.174;11.566;2022-07-06T10:55:37;96221.75;;;28.93;32.49
25420;BME280;13354;48.174;11.566;2022-07-06T10:58:03;96227.44;;;28.78;34.04
25420;BME280;13354;48.174;11.566;2022-07-06T11:05:59;96230.09;;;28.64;32.92
25420;BME280;13354;48.174;11.566;2022-07-06T11:11:19;96229.28;;;27.97;33.43
25420;BME280;13354;48.174;11.566;2022-07-06T11:13:52;96222.44;;;27.99;33.57
25420;BME280;13354;48.174;11.566;2022-07-06T11:16:18;96224.13;;;27.95;33.71
25420;BME280;13354;48.174;11.566;2022-07-06T11:18:59;96227.25;;;28.07;33.75
25420;BME280;13354;48.174;11.566;2022-07-06T11:21:32;96223.38;;;28.13;33.98
25420;BME280;13354;48.174;11.566;2022-07-06T11:23:57;96221.63;;;28.23;34.69
25420;BME280;13354;48.174;11.566;2022-07-06T11:26:23;96220.28;;;28.20;33.94
25420;BME280;13354;48.174;11.566;2022-07-06T11:28:48;96214.28;;;27.70;34.11
25420;BME280;13354;48.174;11.566;2022-07-06T11:31:16;96223.59;;;27.35;34.56
25420;BME280;13354;48.174;11.566;2022-07-06T11:33:44;96215.38;;;27.11;35.36
25420;BME280;13354;48.174;11.566;2022-07-06T11:36:13;96225.81;;;26.93;35.77
25420;BME280;13354;48.174;11.566;2022-07-06T11:38:39;96215.31;;;26.82;36.54
25420;BME280;13354;48.174;11.566;2022-07-06T11:41:04;96223.09;;;26.49;35.64
25420;BME280;13354;48.174;11.566;2022-07-06T11:43:30;96226.97;;;26.27;36.97
25420;BME280;13354;48.174;11.566;2022-07-06T11:45:55;96214.63;;;26.61;35.62
25420;BME280;13354;48.174;11.566;2022-07-06T11:48:20;96209.63;;;26.78;35.30
25420;BME280;13354;48.174;11.566;2022-07-06T11:51:00;96201.16;;;26.85;35.27
25420;BME280;13354;48.174;11.566;2022-07-06T11:53:26;96198.81;;;27.07;35.63
25420;BME280;13354;48.174;11.566;2022-07-06T11:55:51;96197.91;;;27.22;33.15
25420;BME280;13354;48.174;11.566;2022-07-06T11:58:20;96205.75;;;27.24;33.88
25420;BME280;13354;48.174;11.566;2022-07-06T12:01:07;96196.66;;;27.38;34.68
25420;BME280;13354;48.174;11.566;2022-07-06T12:03:33;96192.38;;;27.32;33.76
25420;BME280;13354;48.174;11.566;2022-07-06T12:06:21;96189.13;;;26.96;35.14
25420;BME280;13354;48.174;11.566;2022-07-06T12:08:50;96184.25;;;26.88;35.51
25420;BME280;13354;48.174;11.566;2022-07-06T12:13:50;96185.28;;;26.97;35.72
25420;BME280;13354;48.174;11.566;2022-07-06T12:16:16;96186.91;;;26.98;35.42
25420;BME280;13354;48.174;11.566;2022-07-06T12:18:41;96187.13;;;27.07;35.62
25420;BME280;13354;48.174;11.566;2022-07-06T12:21:08;96172.34;;;27.23;34.11
25420;BME280;13354;48.174;11.566;2022-07-06T12:23:48;96173.19;;;27.48;33.91
25420;BME280;13354;48.174;11.566;2022-07-06T12:26:14;96173.53;;;27.65;33.74
25420;BME280;13354;48.174;11.566;2022-07-06T12:28:40;96171.81;;;27.74;34.20
25420;BME280;13354;48.174;11.566;2022-07-06T12:31:05;96164.94;;;28.06;34.85
25420;BME280;13354;48.174;11.566;2022-07-06T12:33:31;96158.81;;;28.38;34.14
25420;BME280;13354;48.174;11.566;2022-07-06T12:35:56;96158.75;;;28.62;32.92
25420;BME280;13354;48.174;11.566;2022-07-06T12:38:25;96166.16;;;28.75;33.05
25420;BME280;13354;48.174;11.566;2022-07-06T12:40:50;96162.69;;;28.88;32.80
25420;BME280;13354;48.174;11.566;2022-07-06T12:43:34;96155.63;;;28.87;32.73
25420;BME280;13354;48.174;11.566;2022-07-06T12:45:59;96152.69;;;28.84;31.76
25420;BME280;13354;48.174;11.566;2022-07-06T12:48:25;96146.13;;;28.85;31.82
25420;BME280;13354;48.174;11.566;2022-07-06T12:50:50;96153.44;;;28.52;31.97
25420;BME280;13354;48.174;11.566;2022-07-06T12:53:25;96151.63;;;28.23;32.61
25420;BME280;13354;48.174;11.566;2022-07-06T12:56:07;96151.19;;;28.16;32.41
25420;BME280;13354;48.174;11.566;2022-07-06T12:58:33;96155.34;;;27.89;32.76
25420;BME280;13354;48.174;11.566;2022-07-06T13:01:01;96152.50;;;27.76;32.55
25420;BME280;13354;48.174;11.566;2022-07-06T13:03:27;96145.47;;;27.69;33.11